< < Back
Terminal Aerodrome Forecast


Current Version              Previous Versions:   1  2  3  4  5  6  7  8  9  

Terminal Aerodrome Forecast

705
FTUS44 KBMX 311435 AAB
TAFMGM
TAF AMD
KMGM 311435Z 3115/0112 24007KT P6SM BKN040
     FM311800 24007KT P6SM VCTS OVC040CB
     FM010100 00000KT P6SM OVC080=

Latest METAR

473
SAUS80 KWBC 010400 RRH
MTRMGM
METAR KMGM 010353Z AUTO 18005KT 10SM CLR 20/12 A2998 RMK AO2 SLP149
T02000117


USA.gov is the U.S. government's official web portal to all federal, state and local government web resources and services.